sensor_id;sensor_type;location;lat;lon;timestamp;temperature;humidity
75105;DHT22;64778;47.314;8.466;2022-12-17T00:00:08;-1.10;82.70
75105;DHT22;64778;47.314;8.466;2022-12-17T00:02:57;-1.20;82.50
75105;DHT22;64778;47.314;8.466;2022-12-17T00:05:42;-1.20;82.90
75105;DHT22;64778;47.314;8.466;2022-12-17T00:08:26;-1.10;82.90
75105;DHT22;64778;47.314;8.466;2022-12-17T00:11:13;-1.00;82.20
75105;DHT22;64778;47.314;8.466;2022-12-17T00:13:57;-1.00;81.90
75105;DHT22;64778;47.314;8.466;2022-12-17T00:16:43;-1.00;81.40
75105;DHT22;64778;47.314;8.466;2022-12-17T00:19:30;-1.00;81.40
75105;DHT22;64778;47.314;8.466;2022-12-17T00:22:14;-0.90;80.90
75105;DHT22;64778;47.314;8.466;2022-12-17T00:24:58;-1.10;81.40
75105;DHT22;64778;47.314;8.466;2022-12-17T00:27:42;-1.10;82.10
75105;DHT22;64778;47.314;8.466;2022-12-17T00:30:26;-1.00;81.90
75105;DHT22;64778;47.314;8.466;2022-12-17T00:33:13;-1.00;82.40
75105;DHT22;64778;47.314;8.466;2022-12-17T00:35:57;-1.10;81.80
75105;DHT22;64778;47.314;8.466;2022-12-17T00:38:41;-1.20;81.90
75105;DHT22;64778;47.314;8.466;2022-12-17T00:41:27;-1.30;82.30
75105;DHT22;64778;47.314;8.466;2022-12-17T00:44:12;-1.30;82.50
75105;DHT22;64778;47.314;8.466;2022-12-17T00:46:56;-1.20;82.80
75105;DHT22;64778;47.314;8.466;2022-12-17T00:49:40;-1.20;82.40
75105;DHT22;64778;47.314;8.466;2022-12-17T00:52:26;-1.30;82.50
75105;DHT22;64778;47.314;8.466;2022-12-17T00:55:13;-1.20;82.70
75105;DHT22;64778;47.314;8.466;2022-12-17T00:57:57;-1.10;82.40
75105;DHT22;64778;47.314;8.466;2022-12-17T01:00:42;-1.10;82.20
75105;DHT22;64778;47.314;8.466;2022-12-17T01:03:27;-1.10;82.10
75105;DHT22;64778;47.314;8.466;2022-12-17T01:06:11;-1.00;81.90
75105;DHT22;64778;47.314;8.466;2022-12-17T01:08:55;-1.00;82.80
75105;DHT22;64778;47.314;8.466;2022-12-17T01:11:40;-1.00;83.10
75105;DHT22;64778;47.314;8.466;2022-12-17T01:14:25;-1.00;82.50
75105;DHT22;64778;47.314;8.466;2022-12-17T01:17:09;-1.00;82.40
75105;DHT22;64778;47.314;8.466;2022-12-17T01:19:54;-1.00;82.10
75105;DHT22;64778;47.314;8.466;2022-12-17T01:22:38;-0.90;82.70
75105;DHT22;64778;47.314;8.466;2022-12-17T01:25:22;-0.90;82.40
75105;DHT22;64778;47.314;8.466;2022-12-17T01:28:06;-0.80;82.70
75105;DHT22;64778;47.314;8.466;2022-12-17T01:30:50;-0.90;82.50
75105;DHT22;64778;47.314;8.466;2022-12-17T01:33:34;-0.90;82.20
75105;DHT22;64778;47.314;8.466;2022-12-17T01:36:18;-0.90;81.80
75105;DHT22;64778;47.314;8.466;2022-12-17T01:39:05;-0.90;83.00
75105;DHT22;64778;47.314;8.466;2022-12-17T01:41:52;-0.90;82.70
75105;DHT22;64778;47.314;8.466;2022-12-17T01:44:54;-0.90;81.90
75105;DHT22;64778;47.314;8.466;2022-12-17T01:48:01;-0.90;82.40
75105;DHT22;64778;47.314;8.466;2022-12-17T01:50:53;-0.80;82.90
75105;DHT22;64778;47.314;8.466;2022-12-17T01:53:49;-0.70;82.70
75105;DHT22;64778;47.314;8.466;2022-12-17T01:56:36;-0.70;82.90
75105;DHT22;64778;47.314;8.466;2022-12-17T02:02:28;-0.70;82.50
75105;DHT22;64778;47.314;8.466;2022-12-17T02:05:12;-0.70;81.30
75105;DHT22;64778;47.314;8.466;2022-12-17T02:11:25;-1.00;81.90
75105;DHT22;64778;47.314;8.466;2022-12-17T02:17:43;-1.00;82.70
75105;DHT22;64778;47.314;8.466;2022-12-17T02:20:45;-1.00;83.20
75105;DHT22;64778;47.314;8.466;2022-12-17T02:26:51;-0.80;83.00
75105;DHT22;64778;47.314;8.466;2022-12-17T02:29:52;-0.70;82.70
75105;DHT22;64778;47.314;8.466;2022-12-17T02:32:38;-0.80;82.70
75105;DHT22;64778;47.314;8.466;2022-12-17T02:35:29;-0.80;82.60
75105;DHT22;64778;47.314;8.466;2022-12-17T02:41:41;-0.80;83.10
75105;DHT22;64778;47.314;8.466;2022-12-17T02:44:27;-0.70;82.80
75105;DHT22;64778;47.314;8.466;2022-12-17T02:47:15;-0.70;82.50
75105;DHT22;64778;47.314;8.466;2022-12-17T02:50:00;-0.60;83.30
75105;DHT22;64778;47.314;8.466;2022-12-17T02:52:46;-0.60;82.70
75105;DHT22;64778;47.314;8.466;2022-12-17T02:55:34;-0.50;82.90
75105;DHT22;64778;47.314;8.466;2022-12-17T02:58:19;-0.50;82.50
75105;DHT22;64778;47.314;8.466;2022-12-17T03:01:05;-0.50;82.30
75105;DHT22;64778;47.314;8.466;2022-12-17T03:07:12;-0.50;83.00
75105;DHT22;64778;47.314;8.466;2022-12-17T03:13:26;-0.50;82.90
75105;DHT22;64778;47.314;8.466;2022-12-17T03:16:14;-0.50;82.20
75105;DHT22;64778;47.314;8.466;2022-12-17T03:19:02;-0.60;82.70
75105;DHT22;64778;47.314;8.466;2022-12-17T03:21:46;-0.60;82.80
75105;DHT22;64778;47.314;8.466;2022-12-17T03:27:55;-0.60;83.50
75105;DHT22;64778;47.314;8.466;2022-12-17T03:30:39;-0.70;83.60
75105;DHT22;64778;47.314;8.466;2022-12-17T03:33:23;-0.70;84.10
75105;DHT22;64778;47.314;8.466;2022-12-17T03:36:08;-0.70;84.20
75105;DHT22;64778;47.314;8.466;2022-12-17T03:38:52;-0.70;84.20
75105;DHT22;64778;47.314;8.466;2022-12-17T03:41:36;-0.60;83.60
75105;DHT22;64778;47.314;8.466;2022-12-17T03:44:41;-0.60;83.90
75105;DHT22;64778;47.314;8.466;2022-12-17T03:50:55;-0.60;83.30
75105;DHT22;64778;47.314;8.466;2022-12-17T03:53:39;-0.60;83.50
75105;DHT22;64778;47.314;8.466;2022-12-17T03:56:24;-0.60;83.70
75105;DHT22;64778;47.314;8.466;2022-12-17T03:59:08;-0.60;83.60
75105;DHT22;64778;47.314;8.466;2022-12-17T04:01:53;-0.60;83.60
75105;DHT22;64778;47.314;8.466;2022-12-17T04:04:37;-0.60;83.50
75105;DHT22;64778;47.314;8.466;2022-12-17T04:07:22;-0.60;83.40
75105;DHT22;64778;47.314;8.466;2022-12-17T04:10:06;-0.60;83.40
75105;DHT22;64778;47.314;8.466;2022-12-17T04:12:51;-0.60;83.50
75105;DHT22;64778;47.314;8.466;2022-12-17T04:18:57;-0.70;83.60
75105;DHT22;64778;47.314;8.466;2022-12-17T04:21:41;-0.70;83.60
75105;DHT22;64778;47.314;8.466;2022-12-17T04:24:25;-0.60;83.70
75105;DHT22;64778;47.314;8.466;2022-12-17T04:27:09;-0.70;84.00
75105;DHT22;64778;47.314;8.466;2022-12-17T04:29:53;-0.70;83.70
75105;DHT22;64778;47.314;8.466;2022-12-17T04:32:37;-0.60;83.40
75105;DHT22;64778;47.314;8.466;2022-12-17T04:35:21;-0.60;83.60
75105;DHT22;64778;47.314;8.466;2022-12-17T04:38:05;-0.70;83.50
75105;DHT22;64778;47.314;8.466;2022-12-17T04:40:49;-0.70;83.30
75105;DHT22;64778;47.314;8.466;2022-12-17T04:43:33;-0.70;83.40
75105;DHT22;64778;47.314;8.466;2022-12-17T04:46:17;-0.70;83.10
75105;DHT22;64778;47.314;8.466;2022-12-17T04:49:01;-0.70;83.20
75105;DHT22;64778;47.314;8.466;2022-12-17T04:51:48;-0.70;82.80
75105;DHT22;64778;47.314;8.466;2022-12-17T04:54:32;-0.80;82.30
75105;DHT22;64778;47.314;8.466;2022-12-17T05:00:38;-0.80;82.90
75105;DHT22;64778;47.314;8.466;2022-12-17T05:03:22;-0.80;82.50
75105;DHT22;64778;47.314;8.466;2022-12-17T05:06:08;-0.90;82.50
75105;DHT22;64778;47.314;8.466;2022-12-17T05:08:54;-0.90;82.50
75105;DHT22;64778;47.314;8.466;2022-12-17T05:11:39;-1.10;83.00
75105;DHT22;64778;47.314;8.466;2022-12-17T05:14:23;-1.10;82.80
75105;DHT22;64778;47.314;8.466;2022-12-17T05:17:07;-1.10;83.10
75105;DHT22;64778;47.314;8.466;2022-12-17T05:19:51;-1.10;83.10
75105;DHT22;64778;47.314;8.466;2022-12-17T05:22:35;-1.20;82.90
75105;DHT22;64778;47.314;8.466;2022-12-17T05:25:19;-1.30;82.50
75105;DHT22;64778;47.314;8.466;2022-12-17T05:31:25;-1.50;83.90
75105;DHT22;64778;47.314;8.466;2022-12-17T05:37:26;-1.50;83.80
75105;DHT22;64778;47.314;8.466;2022-12-17T05:40:11;-1.50;84.00
75105;DHT22;64778;47.314;8.466;2022-12-17T05:43:00;-1.40;84.40
75105;DHT22;64778;47.314;8.466;2022-12-17T05:45:48;-1.40;83.80
75105;DHT22;64778;47.314;8.466;2022-12-17T05:48:33;-1.40;83.60
75105;DHT22;64778;47.314;8.466;2022-12-17T05:51:18;-1.60;83.70
75105;DHT22;64778;47.314;8.466;2022-12-17T05:54:02;-1.60;83.70
75105;DHT22;64778;47.314;8.466;2022-12-17T05:56:46;-1.60;83.80
75105;DHT22;64778;47.314;8.466;2022-12-17T05:59:30;-1.50;83.80
75105;DHT22;64778;47.314;8.466;2022-12-17T06:02:14;-1.60;83.70
75105;DHT22;64778;47.314;8.466;2022-12-17T06:05:01;-1.50;83.70
75105;DHT22;64778;47.314;8.466;2022-12-17T06:07:45;-1.60;83.70
75105;DHT22;64778;47.314;8.466;2022-12-17T06:13:52;-1.80;83.80
75105;DHT22;64778;47.314;8.466;2022-12-17T06:16:38;-1.80;83.80
75105;DHT22;64778;47.314;8.466;2022-12-17T06:19:23;-1.90;84.20
75105;DHT22;64778;47.314;8.466;2022-12-17T06:22:07;-1.90;83.90
75105;DHT22;64778;47.314;8.466;2022-12-17T06:24:51;-1.80;84.00
75105;DHT22;64778;47.314;8.466;2022-12-17T06:27:35;-1.90;83.90
75105;DHT22;64778;47.314;8.466;2022-12-17T06:33:41;-2.00;83.90
75105;DHT22;64778;47.314;8.466;2022-12-17T06:36:28;-2.00;84.20
75105;DHT22;64778;47.314;8.466;2022-12-17T06:39:12;-2.00;83.90
75105;DHT22;64778;47.314;8.466;2022-12-17T06:41:56;-2.10;83.90
75105;DHT22;64778;47.314;8.466;2022-12-17T06:44:40;-2.10;83.90
75105;DHT22;64778;47.314;8.466;2022-12-17T06:47:24;-2.10;84.00
75105;DHT22;64778;47.314;8.466;2022-12-17T06:50:08;-2.10;83.70
75105;DHT22;64778;47.314;8.466;2022-12-17T06:53:04;-2.00;84.00
75105;DHT22;64778;47.314;8.466;2022-12-17T06:55:51;-2.00;83.50
75105;DHT22;64778;47.314;8.466;2022-12-17T06:58:38;-2.20;83.50
75105;DHT22;64778;47.314;8.466;2022-12-17T07:01:22;-2.10;84.10
75105;DHT22;64778;47.314;8.466;2022-12-17T07:04:08;-2.10;84.40
75105;DHT22;64778;47.314;8.466;2022-12-17T07:06:52;-2.00;83.50
75105;DHT22;64778;47.314;8.466;2022-12-17T07:09:36;-2.10;84.20
75105;DHT22;64778;47.314;8.466;2022-12-17T07:12:23;-2.10;84.40
75105;DHT22;64778;47.314;8.466;2022-12-17T07:15:07;-2.10;84.20
75105;DHT22;64778;47.314;8.466;2022-12-17T07:18:02;-2.10;84.30
75105;DHT22;64778;47.314;8.466;2022-12-17T07:20:47;-2.00;83.80
75105;DHT22;64778;47.314;8.466;2022-12-17T07:23:32;-2.00;83.60
75105;DHT22;64778;47.314;8.466;2022-12-17T07:26:16;-2.00;84.20
75105;DHT22;64778;47.314;8.466;2022-12-17T07:29:00;-2.00;84.20
75105;DHT22;64778;47.314;8.466;2022-12-17T07:31:45;-1.80;83.90
75105;DHT22;64778;47.314;8.466;2022-12-17T07:34:31;-1.90;83.40
75105;DHT22;64778;47.314;8.466;2022-12-17T07:37:18;-1.80;83.40
75105;DHT22;64778;47.314;8.466;2022-12-17T07:40:02;-1.70;82.80
75105;DHT22;64778;47.314;8.466;2022-12-17T07:42:47;-1.60;83.10
75105;DHT22;64778;47.314;8.466;2022-12-17T07:45:33;-1.60;82.80
75105;DHT22;64778;47.314;8.466;2022-12-17T07:48:17;-1.60;82.10
75105;DHT22;64778;47.314;8.466;2022-12-17T07:51:01;-1.50;82.60
75105;DHT22;64778;47.314;8.466;2022-12-17T07:53:45;-1.60;82.40
75105;DHT22;64778;47.314;8.466;2022-12-17T07:56:29;-1.60;82.60
75105;DHT22;64778;47.314;8.466;2022-12-17T07:59:15;-1.60;82.60
75105;DHT22;64778;47.314;8.466;2022-12-17T08:01:59;-1.60;82.70
75105;DHT22;64778;47.314;8.466;2022-12-17T08:04:43;-1.50;82.20
75105;DHT22;64778;47.314;8.466;2022-12-17T08:07:27;-1.40;82.20
75105;DHT22;64778;47.314;8.466;2022-12-17T08:10:11;-1.30;82.00
75105;DHT22;64778;47.314;8.466;2022-12-17T08:16:20;-1.20;82.10
75105;DHT22;64778;47.314;8.466;2022-12-17T08:19:06;-1.10;80.80
75105;DHT22;64778;47.314;8.466;2022-12-17T08:21:51;-0.90;81.00
75105;DHT22;64778;47.314;8.466;2022-12-17T08:24:35;-0.80;80.80
75105;DHT22;64778;47.314;8.466;2022-12-17T08:27:19;-0.80;80.80
75105;DHT22;64778;47.314;8.466;2022-12-17T08:30:04;-0.70;80.20
75105;DHT22;64778;47.314;8.466;2022-12-17T08:32:48;-0.60;79.90
75105;DHT22;64778;47.314;8.466;2022-12-17T08:35:33;-0.60;79.70
75105;DHT22;64778;47.314;8.466;2022-12-17T08:38:17;-0.60;80.30
75105;DHT22;64778;47.314;8.466;2022-12-17T08:41:04;-0.60;79.80
75105;DHT22;64778;47.314;8.466;2022-12-17T08:43:48;-0.60;79.80
75105;DHT22;64778;47.314;8.466;2022-12-17T08:46:32;-0.70;79.60
75105;DHT22;64778;47.314;8.466;2022-12-17T08:49:18;-0.70;79.70
75105;DHT22;64778;47.314;8.466;2022-12-17T08:52:05;-0.70;79.70
75105;DHT22;64778;47.314;8.466;2022-12-17T08:54:50;-0.70;79.90
75105;DHT22;64778;47.314;8.466;2022-12-17T08:57:57;-0.60;80.00
75105;DHT22;64778;47.314;8.466;2022-12-17T09:00:42;-0.70;79.20
75105;DHT22;64778;47.314;8.466;2022-12-17T09:03:27;-0.60;79.70
75105;DHT22;64778;47.314;8.466;2022-12-17T09:06:14;-0.40;84.60
75105;DHT22;64778;47.314;8.466;2022-12-17T09:08:58;-0.40;80.10
75105;DHT22;64778;47.314;8.466;2022-12-17T09:11:42;-0.50;79.70
75105;DHT22;64778;47.314;8.466;2022-12-17T09:14:26;-0.50;78.60
75105;DHT22;64778;47.314;8.466;2022-12-17T09:17:10;-0.40;78.70
75105;DHT22;64778;47.314;8.466;2022-12-17T09:19:54;-0.30;78.90
75105;DHT22;64778;47.314;8.466;2022-12-17T09:22:39;-0.30;78.30
75105;DHT22;64778;47.314;8.466;2022-12-17T09:25:23;-0.30;78.50
75105;DHT22;64778;47.314;8.466;2022-12-17T09:28:07;-0.30;77.80
75105;DHT22;64778;47.314;8.466;2022-12-17T09:30:56;-0.10;79.00
75105;DHT22;64778;47.314;8.466;2022-12-17T09:33:40;0.00;78.60
75105;DHT22;64778;47.314;8.466;2022-12-17T09:36:24;0.10;78.70
75105;DHT22;64778;47.314;8.466;2022-12-17T09:39:11;0.10;77.60
75105;DHT22;64778;47.314;8.466;2022-12-17T09:42:48;0.30;77.70
75105;DHT22;64778;47.314;8.466;2022-12-17T09:45:22;0.00;77.70
75105;DHT22;64778;47.314;8.466;2022-12-17T09:48:25;0.00;78.20
75105;DHT22;64778;47.314;8.466;2022-12-17T09:51:25;0.10;77.60
75105;DHT22;64778;47.314;8.466;2022-12-17T10:00:27;0.10;77.10
75105;DHT22;64778;47.314;8.466;2022-12-17T10:03:18;0.10;78.60
75105;DHT22;64778;47.314;8.466;2022-12-17T10:06:23;0.30;78.00
75105;DHT22;64778;47.314;8.466;2022-12-17T10:09:12;0.50;77.30
75105;DHT22;64778;47.314;8.466;2022-12-17T10:12:17;0.50;77.10
75105;DHT22;64778;47.314;8.466;2022-12-17T10:15:04;0.40;77.20
75105;DHT22;64778;47.314;8.466;2022-12-17T10:17:49;0.30;76.90
75105;DHT22;64778;47.314;8.466;2022-12-17T10:20:40;0.30;77.80
75105;DHT22;64778;47.314;8.466;2022-12-17T10:23:29;0.40;76.90
75105;DHT22;64778;47.314;8.466;2022-12-17T10:26:17;0.40;77.20
75105;DHT22;64778;47.314;8.466;2022-12-17T10:29:02;0.30;77.90
75105;DHT22;64778;47.314;8.466;2022-12-17T10:31:49;0.40;78.00
75105;DHT22;64778;47.314;8.466;2022-12-17T10:34:37;0.40;77.80
75105;DHT22;64778;47.314;8.466;2022-12-17T10:37:30;0.30;77.70
75105;DHT22;64778;47.314;8.466;2022-12-17T10:40:33;0.00;78.20
75105;DHT22;64778;47.314;8.466;2022-12-17T10:46:23;0.40;78.20
75105;DHT22;64778;47.314;8.466;2022-12-17T10:49:16;0.60;77.60
75105;DHT22;64778;47.314;8.466;2022-12-17T10:52:06;0.60;77.10
75105;DHT22;64778;47.314;8.466;2022-12-17T10:54:59;0.60;77.40
75105;DHT22;64778;47.314;8.466;2022-12-17T10:57:48;0.70;76.80
75105;DHT22;64778;47.314;8.466;2022-12-17T11:00:36;0.60;76.30
75105;DHT22;64778;47.314;8.466;2022-12-17T11:03:37;0.60;77.00
75105;DHT22;64778;47.314;8.466;2022-12-17T11:06:29;0.80;76.80
75105;DHT22;64778;47.314;8.466;2022-12-17T11:15:37;0.80;76.10
75105;DHT22;64778;47.314;8.466;2022-12-17T11:21:38;0.90;76.60
75105;DHT22;64778;47.314;8.466;2022-12-17T11:27:56;1.10;76.50
75105;DHT22;64778;47.314;8.466;2022-12-17T11:30:48;1.00;75.90
75105;DHT22;64778;47.314;8.466;2022-12-17T11:33:40;0.90;76.90
75105;DHT22;64778;47.314;8.466;2022-12-17T11:36:35;0.90;76.70
75105;DHT22;64778;47.314;8.466;2022-12-17T11:39:25;0.80;76.40
75105;DHT22;64778;47.314;8.466;2022-12-17T11:48:55;0.90;76.80
75105;DHT22;64778;47.314;8.466;2022-12-17T11:55:34;1.30;75.60
75105;DHT22;64778;47.314;8.466;2022-12-17T11:58:39;1.40;75.80
75105;DHT22;64778;47.314;8.466;2022-12-17T12:04:40;1.50;74.80
75105;DHT22;64778;47.314;8.466;2022-12-17T12:07:40;1.50;74.40
75105;DHT22;64778;47.314;8.466;2022-12-17T12:13:37;1.30;75.20
75105;DHT22;64778;47.314;8.466;2022-12-17T12:19:43;1.30;75.80
75105;DHT22;64778;47.314;8.466;2022-12-17T12:22:44;1.50;75.00
75105;DHT22;64778;47.314;8.466;2022-12-17T12:28:36;1.60;74.30
75105;DHT22;64778;47.314;8.466;2022-12-17T12:32:01;1.60;74.10
75105;DHT22;64778;47.314;8.466;2022-12-17T12:34:47;1.70;74.00
75105;DHT22;64778;47.314;8.466;2022-12-17T12:37:33;1.80;74.50
75105;DHT22;64778;47.314;8.466;2022-12-17T12:43:33;1.70;74.80
75105;DHT22;64778;47.314;8.466;2022-12-17T12:46:37;1.80;74.00
75105;DHT22;64778;47.314;8.466;2022-12-17T12:49:32;1.90;73.60
75105;DHT22;64778;47.314;8.466;2022-12-17T12:52:21;1.90;74.20
75105;DHT22;64778;47.314;8.466;2022-12-17T12:55:06;1.70;72.90
75105;DHT22;64778;47.314;8.466;2022-12-17T12:57:59;1.60;74.50
75105;DHT22;64778;47.314;8.466;2022-12-17T13:06:52;1.60;75.20
75105;DHT22;64778;47.314;8.466;2022-12-17T13:14:33;1.80;74.50
75105;DHT22;64778;47.314;8.466;2022-12-17T13:20:33;1.60;74.20
75105;DHT22;64778;47.314;8.466;2022-12-17T13:25:39;1.80;74.30
75105;DHT22;64778;47.314;8.466;2022-12-17T13:28:22;1.70;74.50
75105;DHT22;64778;47.314;8.466;2022-12-17T13:31:03;1.70;73.90
75105;DHT22;64778;47.314;8.466;2022-12-17T13:36:28;1.70;74.10
75105;DHT22;64778;47.314;8.466;2022-12-17T13:41:56;1.50;75.20
75105;DHT22;64778;47.314;8.466;2022-12-17T13:44:28;1.50;75.10
75105;DHT22;64778;47.314;8.466;2022-12-17T13:47:00;1.60;74.50
75105;DHT22;64778;47.314;8.466;2022-12-17T13:49:27;1.60;74.00
75105;DHT22;64778;47.314;8.466;2022-12-17T13:54:26;1.70;74.60
75105;DHT22;64778;47.314;8.466;2022-12-17T13:56:52;1.70;74.50
75105;DHT22;64778;47.314;8.466;2022-12-17T13:59:23;1.60;73.80
75105;DHT22;64778;47.314;8.466;2022-12-17T14:01:53;1.60;74.30
75105;DHT22;64778;47.314;8.466;2022-12-17T14:04:25;1.30;75.20
75105;DHT22;64778;47.314;8.466;2022-12-17T14:06:54;1.10;75.80
75105;DHT22;64778;47.314;8.466;2022-12-17T14:09:25;1.10;76.30
75105;DHT22;64778;47.314;8.466;2022-12-17T14:11:57;1.10;76.30
75105;DHT22;64778;47.314;8.466;2022-12-17T14:14:55;1.20;76.80
75105;DHT22;64778;47.314;8.466;2022-12-17T14:17:27;1.10;76.60
75105;DHT22;64778;47.314;8.466;2022-12-17T14:20:15;1.00;76.70
75105;DHT22;64778;47.314;8.466;2022-12-17T14:23:12;1.10;76.60
75105;DHT22;64778;47.314;8.466;2022-12-17T14:25:41;1.10;76.90
75105;DHT22;64778;47.314;8.466;2022-12-17T14:30:48;1.10;77.40
75105;DHT22;64778;47.314;8.466;2022-12-17T14:33:35;1.00;77.00
75105;DHT22;64778;47.314;8.466;2022-12-17T14:36:06;0.80;77.50
75105;DHT22;64778;47.314;8.466;2022-12-17T14:39:01;0.70;78.20
75105;DHT22;64778;47.314;8.466;2022-12-17T14:41:36;0.70;78.00
75105;DHT22;64778;47.314;8.466;2022-12-17T14:44:28;0.70;77.40
75105;DHT22;64778;47.314;8.466;2022-12-17T14:49:33;0.50;78.80
75105;DHT22;64778;47.314;8.466;2022-12-17T14:51:58;0.40;79.10
75105;DHT22;64778;47.314;8.466;2022-12-17T14:54:28;0.40;79.50
75105;DHT22;64778;47.314;8.466;2022-12-17T14:56:58;0.40;79.40
75105;DHT22;64778;47.314;8.466;2022-12-17T14:59:35;0.50;79.00
75105;DHT22;64778;47.314;8.466;2022-12-17T15:02:24;0.40;80.20
75105;DHT22;64778;47.314;8.466;2022-12-17T15:04:55;0.40;79.80
75105;DHT22;64778;47.314;8.466;2022-12-17T15:07:27;0.40;79.60
75105;DHT22;64778;47.314;8.466;2022-12-17T15:09:56;0.40;79.50
75105;DHT22;64778;47.314;8.466;2022-12-17T15:12:28;0.30;79.40
75105;DHT22;64778;47.314;8.466;2022-12-17T15:14:54;0.20;79.90
75105;DHT22;64778;47.314;8.466;2022-12-17T15:17:20;0.30;79.70
75105;DHT22;64778;47.314;8.466;2022-12-17T15:19:46;0.20;79.80
75105;DHT22;64778;47.314;8.466;2022-12-17T15:22:15;0.20;79.80
75105;DHT22;64778;47.314;8.466;2022-12-17T15:24:42;0.20;80.50
75105;DHT22;64778;47.314;8.466;2022-12-17T15:27:13;0.20;80.50
75105;DHT22;64778;47.314;8.466;2022-12-17T15:29:43;0.10;80.80
75105;DHT22;64778;47.314;8.466;2022-12-17T15:32:19;0.00;80.90
75105;DHT22;64778;47.314;8.466;2022-12-17T15:34:45;0.00;80.70
75105;DHT22;64778;47.314;8.466;2022-12-17T15:37:11;-0.10;80.90
75105;DHT22;64778;47.314;8.466;2022-12-17T15:39:37;-0.20;81.60
75105;DHT22;64778;47.314;8.466;2022-12-17T15:42:03;-0.20;81.70
75105;DHT22;64778;47.314;8.466;2022-12-17T15:44:47;-0.30;81.40
75105;DHT22;64778;47.314;8.466;2022-12-17T15:47:15;-0.30;82.10
75105;DHT22;64778;47.314;8.466;2022-12-17T15:49:43;-0.30;82.20
75105;DHT22;64778;47.314;8.466;2022-12-17T15:52:10;-0.30;82.20
75105;DHT22;64778;47.314;8.466;2022-12-17T15:54:42;-0.20;82.20
75105;DHT22;64778;47.314;8.466;2022-12-17T15:57:08;-0.20;82.30
75105;DHT22;64778;47.314;8.466;2022-12-17T15:59:37;-0.10;82.00
75105;DHT22;64778;47.314;8.466;2022-12-17T16:05:24;-0.20;82.10
75105;DHT22;64778;47.314;8.466;2022-12-17T16:07:52;-0.20;82.10
75105;DHT22;64778;47.314;8.466;2022-12-17T16:10:18;-0.30;82.40
75105;DHT22;64778;47.314;8.466;2022-12-17T16:12:44;-0.30;82.30
75105;DHT22;64778;47.314;8.466;2022-12-17T16:15:12;-0.30;81.90
75105;DHT22;64778;47.314;8.466;2022-12-17T16:17:37;-0.40;82.40
75105;DHT22;64778;47.314;8.466;2022-12-17T16:20:04;-0.60;83.30
75105;DHT22;64778;47.314;8.466;2022-12-17T16:22:30;-0.70;83.10
75105;DHT22;64778;47.314;8.466;2022-12-17T16:24:55;-0.70;83.70
75105;DHT22;64778;47.314;8.466;2022-12-17T16:27:24;-0.90;83.90
75105;DHT22;64778;47.314;8.466;2022-12-17T16:29:49;-0.90;83.70
75105;DHT22;64778;47.314;8.466;2022-12-17T16:32:16;-0.90;84.00
75105;DHT22;64778;47.314;8.466;2022-12-17T16:34:42;-0.80;83.70
75105;DHT22;64778;47.314;8.466;2022-12-17T16:37:10;-0.80;83.90
75105;DHT22;64778;47.314;8.466;2022-12-17T16:39:36;-0.80;84.10
75105;DHT22;64778;47.314;8.466;2022-12-17T16:42:02;-0.90;83.90
75105;DHT22;64778;47.314;8.466;2022-12-17T16:44:28;-0.90;84.40
75105;DHT22;64778;47.314;8.466;2022-12-17T16:46:58;-0.70;84.10
75105;DHT22;64778;47.314;8.466;2022-12-17T16:49:26;-0.70;83.50
75105;DHT22;64778;47.314;8.466;2022-12-17T16:51:54;-0.80;83.60
75105;DHT22;64778;47.314;8.466;2022-12-17T16:54:24;-0.80;83.40
75105;DHT22;64778;47.314;8.466;2022-12-17T16:56:54;-0.90;83.50
75105;DHT22;64778;47.314;8.466;2022-12-17T16:59:20;-0.80;83.70
75105;DHT22;64778;47.314;8.466;2022-12-17T17:01:48;-0.70;82.60
75105;DHT22;64778;47.314;8.466;2022-12-17T17:04:15;-0.80;83.20
75105;DHT22;64778;47.314;8.466;2022-12-17T17:06:44;-0.80;83.60
75105;DHT22;64778;47.314;8.466;2022-12-17T17:09:13;-0.80;83.10
75105;DHT22;64778;47.314;8.466;2022-12-17T17:11:38;-0.70;82.80
75105;DHT22;64778;47.314;8.466;2022-12-17T17:14:05;-0.70;82.60
75105;DHT22;64778;47.314;8.466;2022-12-17T17:16:32;-0.60;82.90
75105;DHT22;64778;47.314;8.466;2022-12-17T17:19:04;-0.60;82.80
75105;DHT22;64778;47.314;8.466;2022-12-17T17:21:46;-0.70;82.80
75105;DHT22;64778;47.314;8.466;2022-12-17T17:24:14;-0.90;83.20
75105;DHT22;64778;47.314;8.466;2022-12-17T17:26:41;-0.90;84.10
75105;DHT22;64778;47.314;8.466;2022-12-17T17:29:09;-0.90;83.50
75105;DHT22;64778;47.314;8.466;2022-12-17T17:31:36;-0.90;83.70
75105;DHT22;64778;47.314;8.466;2022-12-17T17:34:10;-0.80;83.30
75105;DHT22;64778;47.314;8.466;2022-12-17T17:36:37;-0.80;83.40
75105;DHT22;64778;47.314;8.466;2022-12-17T17:39:03;-0.80;83.50
75105;DHT22;64778;47.314;8.466;2022-12-17T17:41:32;-0.70;83.60
75105;DHT22;64778;47.314;8.466;2022-12-17T17:44:20;-0.60;83.60
75105;DHT22;64778;47.314;8.466;2022-12-17T17:46:48;-0.50;83.00
75105;DHT22;64778;47.314;8.466;2022-12-17T17:49:14;-0.50;82.40
75105;DHT22;64778;47.314;8.466;2022-12-17T17:51:40;-0.40;82.30
75105;DHT22;64778;47.314;8.466;2022-12-17T17:54:09;-0.40;82.00
75105;DHT22;64778;47.314;8.466;2022-12-17T17:56:37;-0.30;81.80
75105;DHT22;64778;47.314;8.466;2022-12-17T17:59:05;-0.30;81.90
75105;DHT22;64778;47.314;8.466;2022-12-17T18:01:36;-0.30;81.90
75105;DHT22;64778;47.314;8.466;2022-12-17T18:04:02;-0.20;82.00
75105;DHT22;64778;47.314;8.466;2022-12-17T18:06:29;-0.20;81.80
75105;DHT22;64778;47.314;8.466;2022-12-17T18:08:56;-0.30;81.70
75105;DHT22;64778;47.314;8.466;2022-12-17T18:11:23;-0.30;81.80
75105;DHT22;64778;47.314;8.466;2022-12-17T18:13:48;-0.30;82.30
75105;DHT22;64778;47.314;8.466;2022-12-17T18:16:27;-0.30;81.90
75105;DHT22;64778;47.314;8.466;2022-12-17T18:18:58;-0.30;81.30
75105;DHT22;64778;47.314;8.466;2022-12-17T18:21:25;-0.40;81.40
75105;DHT22;64778;47.314;8.466;2022-12-17T18:23:59;-0.30;82.00
75105;DHT22;64778;47.314;8.466;2022-12-17T18:26:29;-0.30;81.40
75105;DHT22;64778;47.314;8.466;2022-12-17T18:28:56;-0.30;81.40
75105;DHT22;64778;47.314;8.466;2022-12-17T18:31:25;-0.20;81.40
75105;DHT22;64778;47.314;8.466;2022-12-17T18:33:57;-0.30;81.30
75105;DHT22;64778;47.314;8.466;2022-12-17T18:36:34;-0.20;81.40
75105;DHT22;64778;47.314;8.466;2022-12-17T18:41:38;-0.20;81.90
75105;DHT22;64778;47.314;8.466;2022-12-17T18:44:23;-0.20;81.30
75105;DHT22;64778;47.314;8.466;2022-12-17T18:46:51;-0.20;81.30
75105;DHT22;64778;47.314;8.466;2022-12-17T18:49:18;-0.20;81.50
75105;DHT22;64778;47.314;8.466;2022-12-17T18:51:46;-0.10;81.40
75105;DHT22;64778;47.314;8.466;2022-12-17T18:54:32;-0.20;81.20
75105;DHT22;64778;47.314;8.466;2022-12-17T19:00:21;-0.20;81.20
75105;DHT22;64778;47.314;8.466;2022-12-17T19:06:11;-0.20;81.40
75105;DHT22;64778;47.314;8.466;2022-12-17T19:08:37;-0.20;82.00
75105;DHT22;64778;47.314;8.466;2022-12-17T19:11:08;-0.30;82.30
75105;DHT22;64778;47.314;8.466;2022-12-17T19:13:34;-0.30;82.00
75105;DHT22;64778;47.314;8.466;2022-12-17T19:16:27;-0.30;82.10
75105;DHT22;64778;47.314;8.466;2022-12-17T19:22:15;-0.20;82.30
75105;DHT22;64778;47.314;8.466;2022-12-17T19:24:41;-0.20;81.80
75105;DHT22;64778;47.314;8.466;2022-12-17T19:27:06;-0.20;81.70
75105;DHT22;64778;47.314;8.466;2022-12-17T19:32:54;-0.20;82.00
75105;DHT22;64778;47.314;8.466;2022-12-17T19:35:24;-0.20;82.00